sensor_id;sensor_type;location;lat;lon;timestamp;pressure;altitude;pressure_sealevel;temperature;humidity
35479;BME280;21594;49.794;18.652;2022-08-19T00:01:35;97614.98;;;21.77;100.00
35479;BME280;21594;49.794;18.652;2022-08-19T00:04:04;97610.98;;;21.77;100.00
35479;BME280;21594;49.794;18.652;2022-08-19T00:06:34;97610.70;;;21.76;100.00
35479;BME280;21594;49.794;18.652;2022-08-19T00:09:01;97609.88;;;21.76;100.00
35479;BME280;21594;49.794;18.652;2022-08-19T00:11:29;97608.64;;;21.78;100.00
35479;BME280;21594;49.794;18.652;2022-08-19T00:13:56;97604.81;;;21.94;100.00
35479;BME280;21594;49.794;18.652;2022-08-19T00:16:24;97606.11;;;22.04;100.00
35479;BME280;21594;49.794;18.652;2022-08-19T00:18:50;97600.20;;;22.09;100.00
35479;BME280;21594;49.794;18.652;2022-08-19T00:21:17;97597.92;;;22.06;100.00
35479;BME280;21594;49.794;18.652;2022-08-19T00:23:43;97588.28;;;22.05;100.00
35479;BME280;21594;49.794;18.652;2022-08-19T00:26:11;97575.88;;;22.01;100.00
35479;BME280;21594;49.794;18.652;2022-08-19T00:28:37;97584.02;;;22.17;100.00
35479;BME280;21594;49.794;18.652;2022-08-19T00:31:05;97582.39;;;22.23;100.00
35479;BME280;21594;49.794;18.652;2022-08-19T00:33:33;97577.16;;;22.19;100.00
35479;BME280;21594;49.794;18.652;2022-08-19T00:36:00;97571.23;;;22.23;100.00
35479;BME280;21594;49.794;18.652;2022-08-19T00:38:27;97572.05;;;22.24;100.00
35479;BME280;21594;49.794;18.652;2022-08-19T00:40:54;97569.89;;;22.23;100.00
35479;BME280;21594;49.794;18.652;2022-08-19T00:43:22;97571.75;;;22.29;100.00
35479;BME280;21594;49.794;18.652;2022-08-19T00:45:49;97560.58;;;22.30;100.00
35479;BME280;21594;49.794;18.652;2022-08-19T00:48:18;97562.94;;;22.29;100.00
35479;BME280;21594;49.794;18.652;2022-08-19T00:50:47;97560.98;;;22.33;100.00
35479;BME280;21594;49.794;18.652;2022-08-19T00:53:16;97560.89;;;22.37;100.00
35479;BME280;21594;49.794;18.652;2022-08-19T00:55:50;97556.06;;;22.37;100.00
35479;BME280;21594;49.794;18.652;2022-08-19T00:58:20;97561.81;;;22.34;100.00
35479;BME280;21594;49.794;18.652;2022-08-19T01:00:47;97560.48;;;22.34;100.00
35479;BME280;21594;49.794;18.652;2022-08-19T01:03:18;97558.72;;;22.24;100.00
35479;BME280;21594;49.794;18.652;2022-08-19T01:05:44;97560.23;;;22.09;100.00
35479;BME280;21594;49.794;18.652;2022-08-19T01:08:12;97563.38;;;22.02;100.00
35479;BME280;21594;49.794;18.652;2022-08-19T01:10:46;97553.42;;;22.00;100.00
35479;BME280;21594;49.794;18.652;2022-08-19T01:13:14;97554.08;;;22.08;100.00
35479;BME280;21594;49.794;18.652;2022-08-19T01:15:46;97541.67;;;22.11;100.00
35479;BME280;21594;49.794;18.652;2022-08-19T01:18:15;97547.11;;;22.21;100.00
35479;BME280;21594;49.794;18.652;2022-08-19T01:20:42;97546.81;;;22.26;100.00
35479;BME280;21594;49.794;18.652;2022-08-19T01:23:10;97546.22;;;22.24;100.00
35479;BME280;21594;49.794;18.652;2022-08-19T01:28:17;97543.84;;;22.19;100.00
35479;BME280;21594;49.794;18.652;2022-08-19T01:30:44;97540.17;;;22.20;100.00
35479;BME280;21594;49.794;18.652;2022-08-19T01:33:12;97538.92;;;22.22;100.00
35479;BME280;21594;49.794;18.652;2022-08-19T01:35:41;97543.75;;;22.23;100.00
35479;BME280;21594;49.794;18.652;2022-08-19T01:38:08;97539.12;;;22.21;100.00
35479;BME280;21594;49.794;18.652;2022-08-19T01:40:37;97536.17;;;22.20;100.00
35479;BME280;21594;49.794;18.652;2022-08-19T01:43:04;97530.84;;;22.20;100.00
35479;BME280;21594;49.794;18.652;2022-08-19T01:45:31;97533.78;;;22.21;100.00
35479;BME280;21594;49.794;18.652;2022-08-19T01:47:58;97538.41;;;22.23;100.00
35479;BME280;21594;49.794;18.652;2022-08-19T01:50:24;97545.09;;;22.29;100.00
35479;BME280;21594;49.794;18.652;2022-08-19T01:52:51;97545.19;;;22.32;100.00
35479;BME280;21594;49.794;18.652;2022-08-19T01:55:20;97547.57;;;22.31;100.00
35479;BME280;21594;49.794;18.652;2022-08-19T01:57:48;97546.11;;;22.28;100.00
35479;BME280;21594;49.794;18.652;2022-08-19T02:00:16;97541.59;;;22.22;100.00
35479;BME280;21594;49.794;18.652;2022-08-19T02:02:43;97530.63;;;22.15;100.00
35479;BME280;21594;49.794;18.652;2022-08-19T02:05:09;97535.77;;;21.92;100.00
35479;BME280;21594;49.794;18.652;2022-08-19T02:07:38;97536.41;;;21.77;100.00
35479;BME280;21594;49.794;18.652;2022-08-19T02:10:13;97528.98;;;21.66;100.00
35479;BME280;21594;49.794;18.652;2022-08-19T02:12:39;97534.02;;;21.65;100.00
35479;BME280;21594;49.794;18.652;2022-08-19T02:15:06;97532.37;;;21.64;100.00
35479;BME280;21594;49.794;18.652;2022-08-19T02:17:42;97535.73;;;21.62;100.00
35479;BME280;21594;49.794;18.652;2022-08-19T02:20:07;97531.33;;;21.58;100.00
35479;BME280;21594;49.794;18.652;2022-08-19T02:22:33;97527.94;;;21.60;100.00
35479;BME280;21594;49.794;18.652;2022-08-19T02:25:00;97530.60;;;21.60;100.00
35479;BME280;21594;49.794;18.652;2022-08-19T02:27:26;97524.36;;;21.57;100.00
35479;BME280;21594;49.794;18.652;2022-08-19T02:29:53;97526.38;;;21.49;100.00
35479;BME280;21594;49.794;18.652;2022-08-19T02:32:19;97523.72;;;21.49;100.00
35479;BME280;21594;49.794;18.652;2022-08-19T02:34:46;97524.03;;;21.56;100.00
35479;BME280;21594;49.794;18.652;2022-08-19T02:37:13;97529.52;;;21.65;100.00
35479;BME280;21594;49.794;18.652;2022-08-19T02:39:59;97532.41;;;21.70;100.00
35479;BME280;21594;49.794;18.652;2022-08-19T02:42:25;97521.95;;;21.69;100.00
35479;BME280;21594;49.794;18.652;2022-08-19T02:44:55;97519.28;;;21.69;100.00
35479;BME280;21594;49.794;18.652;2022-08-19T02:47:22;97518.68;;;21.74;100.00
35479;BME280;21594;49.794;18.652;2022-08-19T02:49:48;97517.76;;;21.77;100.00
35479;BME280;21594;49.794;18.652;2022-08-19T02:52:20;97519.41;;;21.78;100.00
35479;BME280;21594;49.794;18.652;2022-08-19T02:54:45;97516.94;;;21.70;100.00
35479;BME280;21594;49.794;18.652;2022-08-19T02:57:11;97505.52;;;21.59;100.00
35479;BME280;21594;49.794;18.652;2022-08-19T02:59:38;97498.42;;;21.49;100.00
35479;BME280;21594;49.794;18.652;2022-08-19T03:02:05;97492.02;;;21.37;100.00
35479;BME280;21594;49.794;18.652;2022-08-19T03:04:32;97491.47;;;21.31;100.00
35479;BME280;21594;49.794;18.652;2022-08-19T03:06:58;97495.05;;;21.34;100.00
35479;BME280;21594;49.794;18.652;2022-08-19T03:09:24;97501.11;;;21.32;100.00
35479;BME280;21594;49.794;18.652;2022-08-19T03:11:50;97505.92;;;21.39;100.00
35479;BME280;21594;49.794;18.652;2022-08-19T03:14:17;97516.07;;;21.39;100.00
35479;BME280;21594;49.794;18.652;2022-08-19T03:16:46;97518.95;;;21.38;100.00
35479;BME280;21594;49.794;18.652;2022-08-19T03:19:15;97524.97;;;21.36;100.00
35479;BME280;21594;49.794;18.652;2022-08-19T03:21:43;97526.45;;;21.27;100.00
35479;BME280;21594;49.794;18.652;2022-08-19T03:24:10;97531.67;;;21.25;100.00
35479;BME280;21594;49.794;18.652;2022-08-19T03:26:47;97522.55;;;21.13;100.00
35479;BME280;21594;49.794;18.652;2022-08-19T03:29:20;97528.42;;;21.02;100.00
35479;BME280;21594;49.794;18.652;2022-08-19T03:31:48;97534.73;;;20.94;100.00
35479;BME280;21594;49.794;18.652;2022-08-19T03:34:22;97532.07;;;20.94;100.00
35479;BME280;21594;49.794;18.652;2022-08-19T03:36:48;97542.68;;;21.05;100.00
35479;BME280;21594;49.794;18.652;2022-08-19T03:39:15;97537.70;;;21.12;100.00
35479;BME280;21594;49.794;18.652;2022-08-19T03:41:44;97548.15;;;21.14;100.00
35479;BME280;21594;49.794;18.652;2022-08-19T03:44:10;97547.32;;;21.24;100.00
35479;BME280;21594;49.794;18.652;2022-08-19T03:46:37;97546.67;;;21.33;100.00
35479;BME280;21594;49.794;18.652;2022-08-19T03:49:04;97546.49;;;21.41;100.00
35479;BME280;21594;49.794;18.652;2022-08-19T03:51:37;97548.47;;;21.49;100.00
35479;BME280;21594;49.794;18.652;2022-08-19T03:54:08;97547.45;;;21.44;100.00
35479;BME280;21594;49.794;18.652;2022-08-19T03:56:35;97553.55;;;21.38;100.00
35479;BME280;21594;49.794;18.652;2022-08-19T03:59:03;97546.17;;;21.40;100.00
35479;BME280;21594;49.794;18.652;2022-08-19T04:01:30;97548.46;;;21.43;100.00
35479;BME280;21594;49.794;18.652;2022-08-19T04:03:57;97550.72;;;21.46;100.00
35479;BME280;21594;49.794;18.652;2022-08-19T04:06:30;97571.42;;;21.50;100.00
35479;BME280;21594;49.794;18.652;2022-08-19T04:11:50;97578.63;;;21.56;100.00
35479;BME280;21594;49.794;18.652;2022-08-19T04:14:27;97581.64;;;21.64;100.00
35479;BME280;21594;49.794;18.652;2022-08-19T04:16:59;97576.92;;;21.66;100.00
35479;BME280;21594;49.794;18.652;2022-08-19T04:19:26;97582.69;;;21.69;100.00
35479;BME280;21594;49.794;18.652;2022-08-19T04:21:53;97582.83;;;21.79;100.00
35479;BME280;21594;49.794;18.652;2022-08-19T04:24:21;97580.29;;;21.81;100.00
35479;BME280;21594;49.794;18.652;2022-08-19T04:26:50;97576.20;;;21.85;100.00
35479;BME280;21594;49.794;18.652;2022-08-19T04:29:22;97579.41;;;21.91;100.00
35479;BME280;21594;49.794;18.652;2022-08-19T04:31:51;97584.26;;;21.98;100.00
35479;BME280;21594;49.794;18.652;2022-08-19T04:34:20;97587.99;;;22.10;100.00
35479;BME280;21594;49.794;18.652;2022-08-19T04:36:48;97582.88;;;22.16;100.00
35479;BME280;21594;49.794;18.652;2022-08-19T04:39:20;97585.36;;;22.17;100.00
35479;BME280;21594;49.794;18.652;2022-08-19T04:41:46;97586.59;;;22.21;100.00
35479;BME280;21594;49.794;18.652;2022-08-19T04:44:34;97593.91;;;22.30;100.00
35479;BME280;21594;49.794;18.652;2022-08-19T04:47:03;97585.80;;;22.34;100.00
35479;BME280;21594;49.794;18.652;2022-08-19T04:49:31;97586.84;;;22.39;100.00
35479;BME280;21594;49.794;18.652;2022-08-19T04:51:57;97582.76;;;22.50;100.00
35479;BME280;21594;49.794;18.652;2022-08-19T04:54:25;97591.90;;;22.51;100.00
35479;BME280;21594;49.794;18.652;2022-08-19T04:56:52;97593.44;;;22.57;100.00
35479;BME280;21594;49.794;18.652;2022-08-19T04:59:20;97594.56;;;22.65;100.00
35479;BME280;21594;49.794;18.652;2022-08-19T05:01:47;97593.75;;;22.71;100.00
35479;BME280;21594;49.794;18.652;2022-08-19T05:04:21;97595.75;;;22.79;100.00
35479;BME280;21594;49.794;18.652;2022-08-19T05:06:48;97602.02;;;22.89;100.00
35479;BME280;21594;49.794;18.652;2022-08-19T05:09:14;97602.09;;;22.91;100.00
35479;BME280;21594;49.794;18.652;2022-08-19T05:11:50;97598.64;;;22.91;100.00
35479;BME280;21594;49.794;18.652;2022-08-19T05:14:18;97591.94;;;22.98;100.00
35479;BME280;21594;49.794;18.652;2022-08-19T05:16:46;97590.61;;;23.04;100.00
35479;BME280;21594;49.794;18.652;2022-08-19T05:19:12;97590.92;;;23.12;100.00
35479;BME280;21594;49.794;18.652;2022-08-19T05:21:56;97591.44;;;23.18;100.00
35479;BME280;21594;49.794;18.652;2022-08-19T05:24:42;97596.66;;;23.28;100.00
35479;BME280;21594;49.794;18.652;2022-08-19T05:27:08;97599.28;;;23.42;100.00
35479;BME280;21594;49.794;18.652;2022-08-19T05:29:34;97605.87;;;23.52;100.00
35479;BME280;21594;49.794;18.652;2022-08-19T05:32:04;97603.70;;;23.58;100.00
35479;BME280;21594;49.794;18.652;2022-08-19T05:34:31;97605.14;;;23.61;100.00
35479;BME280;21594;49.794;18.652;2022-08-19T05:37:00;97607.57;;;23.69;100.00
35479;BME280;21594;49.794;18.652;2022-08-19T05:39:29;97601.39;;;23.75;100.00
35479;BME280;21594;49.794;18.652;2022-08-19T05:41:59;97599.84;;;23.83;100.00
35479;BME280;21594;49.794;18.652;2022-08-19T05:44:27;97600.72;;;23.93;100.00
35479;BME280;21594;49.794;18.652;2022-08-19T05:46:55;97605.11;;;23.96;100.00
35479;BME280;21594;49.794;18.652;2022-08-19T05:49:22;97607.27;;;23.97;100.00
35479;BME280;21594;49.794;18.652;2022-08-19T05:51:49;97611.16;;;24.01;100.00
35479;BME280;21594;49.794;18.652;2022-08-19T05:54:15;97608.64;;;24.12;100.00
35479;BME280;21594;49.794;18.652;2022-08-19T05:56:45;97605.55;;;24.15;100.00
35479;BME280;21594;49.794;18.652;2022-08-19T06:01:46;97621.70;;;24.18;100.00
35479;BME280;21594;49.794;18.652;2022-08-19T06:04:12;97618.90;;;24.22;100.00
35479;BME280;21594;49.794;18.652;2022-08-19T06:06:39;97621.47;;;24.26;100.00
35479;BME280;21594;49.794;18.652;2022-08-19T06:09:07;97617.95;;;24.32;100.00
35479;BME280;21594;49.794;18.652;2022-08-19T06:11:43;97622.72;;;24.39;100.00
35479;BME280;21594;49.794;18.652;2022-08-19T06:14:16;97627.73;;;24.45;100.00
35479;BME280;21594;49.794;18.652;2022-08-19T06:16:44;97629.55;;;24.51;100.00
35479;BME280;21594;49.794;18.652;2022-08-19T06:19:16;97626.12;;;24.59;100.00
35479;BME280;21594;49.794;18.652;2022-08-19T06:21:44;97634.70;;;24.68;100.00
35479;BME280;21594;49.794;18.652;2022-08-19T06:24:16;97636.31;;;24.76;100.00
35479;BME280;21594;49.794;18.652;2022-08-19T06:26:46;97631.95;;;24.81;100.00
35479;BME280;21594;49.794;18.652;2022-08-19T06:29:14;97640.55;;;24.90;100.00
35479;BME280;21594;49.794;18.652;2022-08-19T06:31:43;97642.22;;;25.00;100.00
35479;BME280;21594;49.794;18.652;2022-08-19T06:34:09;97648.73;;;25.11;100.00
35479;BME280;21594;49.794;18.652;2022-08-19T06:36:39;97652.55;;;25.21;100.00
35479;BME280;21594;49.794;18.652;2022-08-19T06:39:09;97654.36;;;25.27;100.00
35479;BME280;21594;49.794;18.652;2022-08-19T06:41:38;97648.64;;;25.33;100.00
35479;BME280;21594;49.794;18.652;2022-08-19T06:44:05;97654.77;;;25.40;100.00
35479;BME280;21594;49.794;18.652;2022-08-19T06:46:31;97654.47;;;25.48;100.00
35479;BME280;21594;49.794;18.652;2022-08-19T06:48:58;97658.13;;;25.54;100.00
35479;BME280;21594;49.794;18.652;2022-08-19T06:51:25;97664.59;;;25.62;100.00
35479;BME280;21594;49.794;18.652;2022-08-19T06:53:53;97668.46;;;25.66;100.00
35479;BME280;21594;49.794;18.652;2022-08-19T06:56:24;97674.59;;;25.73;100.00
35479;BME280;21594;49.794;18.652;2022-08-19T06:58:51;97682.47;;;25.86;100.00
35479;BME280;21594;49.794;18.652;2022-08-19T07:01:19;97691.89;;;25.95;100.00
35479;BME280;21594;49.794;18.652;2022-08-19T07:03:46;97691.36;;;26.05;100.00
35479;BME280;21594;49.794;18.652;2022-08-19T07:06:17;97694.34;;;26.06;100.00
35479;BME280;21594;49.794;18.652;2022-08-19T07:11:15;97690.53;;;26.13;100.00
35479;BME280;21594;49.794;18.652;2022-08-19T07:13:44;97696.59;;;26.18;100.00
35479;BME280;21594;49.794;18.652;2022-08-19T07:16:13;97692.28;;;26.26;100.00
35479;BME280;21594;49.794;18.652;2022-08-19T07:18:40;97694.94;;;26.35;100.00
35479;BME280;21594;49.794;18.652;2022-08-19T07:21:10;97704.19;;;26.48;100.00
35479;BME280;21594;49.794;18.652;2022-08-19T07:23:38;97702.95;;;26.62;100.00
35479;BME280;21594;49.794;18.652;2022-08-19T07:26:11;97706.29;;;26.76;100.00
35479;BME280;21594;49.794;18.652;2022-08-19T07:28:40;97704.56;;;26.91;100.00
35479;BME280;21594;49.794;18.652;2022-08-19T07:31:15;97709.92;;;27.00;100.00
35479;BME280;21594;49.794;18.652;2022-08-19T07:33:44;97712.17;;;27.15;100.00
35479;BME280;21594;49.794;18.652;2022-08-19T07:36:15;97709.26;;;27.28;100.00
35479;BME280;21594;49.794;18.652;2022-08-19T07:38:45;97710.70;;;27.42;100.00
35479;BME280;21594;49.794;18.652;2022-08-19T07:41:15;97710.16;;;27.52;100.00
35479;BME280;21594;49.794;18.652;2022-08-19T07:43:43;97706.44;;;27.64;100.00
35479;BME280;21594;49.794;18.652;2022-08-19T07:46:10;97711.29;;;27.76;100.00
35479;BME280;21594;49.794;18.652;2022-08-19T07:48:36;97719.59;;;27.86;100.00
35479;BME280;21594;49.794;18.652;2022-08-19T07:51:04;97720.15;;;28.00;100.00
35479;BME280;21594;49.794;18.652;2022-08-19T07:53:35;97719.94;;;28.13;100.00
35479;BME280;21594;49.794;18.652;2022-08-19T07:56:03;97721.50;;;28.23;100.00
35479;BME280;21594;49.794;18.652;2022-08-19T07:58:32;97717.87;;;28.29;100.00
35479;BME280;21594;49.794;18.652;2022-08-19T08:01:05;97719.77;;;28.32;100.00
35479;BME280;21594;49.794;18.652;2022-08-19T08:03:29;97728.25;;;28.38;100.00
35479;BME280;21594;49.794;18.652;2022-08-19T08:06:15;97721.62;;;28.43;100.00
35479;BME280;21594;49.794;18.652;2022-08-19T08:09:02;97718.17;;;28.45;100.00
35479;BME280;21594;49.794;18.652;2022-08-19T08:11:45;97720.38;;;28.48;100.00
35479;BME280;21594;49.794;18.652;2022-08-19T08:14:08;97719.33;;;28.49;100.00
35479;BME280;21594;49.794;18.652;2022-08-19T08:16:38;97713.70;;;28.50;100.00
35479;BME280;21594;49.794;18.652;2022-08-19T08:19:05;97713.64;;;28.48;100.00
35479;BME280;21594;49.794;18.652;2022-08-19T08:21:33;97711.77;;;28.48;100.00
35479;BME280;21594;49.794;18.652;2022-08-19T08:24:01;97713.94;;;28.49;100.00
35479;BME280;21594;49.794;18.652;2022-08-19T08:26:27;97717.45;;;28.49;100.00
35479;BME280;21594;49.794;18.652;2022-08-19T08:28:53;97719.03;;;28.48;100.00
35479;BME280;21594;49.794;18.652;2022-08-19T08:31:19;97714.53;;;28.51;100.00
35479;BME280;21594;49.794;18.652;2022-08-19T08:33:46;97720.77;;;28.54;100.00
35479;BME280;21594;49.794;18.652;2022-08-19T08:36:15;97714.30;;;28.52;100.00
35479;BME280;21594;49.794;18.652;2022-08-19T08:38:42;97711.15;;;28.44;100.00
35479;BME280;21594;49.794;18.652;2022-08-19T08:43:59;97712.39;;;28.39;100.00
35479;BME280;21594;49.794;18.652;2022-08-19T08:46:39;97716.33;;;28.34;100.00
35479;BME280;21594;49.794;18.652;2022-08-19T08:51:47;97709.89;;;28.35;99.87
35479;BME280;21594;49.794;18.652;2022-08-19T08:54:18;97710.12;;;28.33;99.37
35479;BME280;21594;49.794;18.652;2022-08-19T08:56:49;97710.42;;;28.34;99.01
35479;BME280;21594;49.794;18.652;2022-08-19T08:59:33;97703.62;;;28.32;99.06
35479;BME280;21594;49.794;18.652;2022-08-19T09:01:56;97705.23;;;28.30;98.82
35479;BME280;21594;49.794;18.652;2022-08-19T09:04:25;97705.36;;;28.23;98.78
35479;BME280;21594;49.794;18.652;2022-08-19T09:07:18;97702.86;;;28.19;98.55
35479;BME280;21594;49.794;18.652;2022-08-19T09:09:48;97705.28;;;28.21;98.38
35479;BME280;21594;49.794;18.652;2022-08-19T09:12:40;97702.44;;;28.25;98.29
35479;BME280;21594;49.794;18.652;2022-08-19T09:15:08;97703.48;;;28.24;98.11
35479;BME280;21594;49.794;18.652;2022-08-19T09:17:35;97702.84;;;28.31;98.14
35479;BME280;21594;49.794;18.652;2022-08-19T09:22:37;97704.48;;;28.46;97.79
35479;BME280;21594;49.794;18.652;2022-08-19T09:25:06;97707.14;;;28.58;97.64
35479;BME280;21594;49.794;18.652;2022-08-19T09:27:38;97709.50;;;28.68;97.19
35479;BME280;21594;49.794;18.652;2022-08-19T09:30:06;97710.02;;;28.80;96.85
35479;BME280;21594;49.794;18.652;2022-08-19T09:32:33;97710.11;;;28.85;96.41
35479;BME280;21594;49.794;18.652;2022-08-19T09:34:59;97708.03;;;28.89;96.38
35479;BME280;21594;49.794;18.652;2022-08-19T09:37:26;97715.48;;;28.99;96.28
35479;BME280;21594;49.794;18.652;2022-08-19T09:39:52;97708.45;;;29.12;96.30
35479;BME280;21594;49.794;18.652;2022-08-19T09:42:19;97704.66;;;29.27;95.85
35479;BME280;21594;49.794;18.652;2022-08-19T09:44:46;97696.77;;;29.37;95.36
35479;BME280;21594;49.794;18.652;2022-08-19T09:47:13;97701.92;;;29.39;94.62
35479;BME280;21594;49.794;18.652;2022-08-19T09:49:40;97697.14;;;29.43;93.94
35479;BME280;21594;49.794;18.652;2022-08-19T09:52:08;97694.76;;;29.47;93.04
35479;BME280;21594;49.794;18.652;2022-08-19T09:54:40;97694.81;;;29.49;92.03
35479;BME280;21594;49.794;18.652;2022-08-19T09:57:06;97695.42;;;29.54;91.26
35479;BME280;21594;49.794;18.652;2022-08-19T09:59:33;97691.45;;;29.59;90.35
35479;BME280;21594;49.794;18.652;2022-08-19T10:01:59;97689.94;;;29.66;89.94
35479;BME280;21594;49.794;18.652;2022-08-19T10:04:25;97693.47;;;29.69;89.29
35479;BME280;21594;49.794;18.652;2022-08-19T10:06:55;97686.80;;;29.74;88.22
35479;BME280;21594;49.794;18.652;2022-08-19T10:09:22;97693.63;;;29.79;87.76
35479;BME280;21594;49.794;18.652;2022-08-19T10:11:49;97684.11;;;29.90;87.19
35479;BME280;21594;49.794;18.652;2022-08-19T10:14:15;97686.17;;;30.03;86.68
35479;BME280;21594;49.794;18.652;2022-08-19T10:16:42;97681.44;;;30.12;86.56
35479;BME280;21594;49.794;18.652;2022-08-19T10:19:09;97680.50;;;30.23;86.19
35479;BME280;21594;49.794;18.652;2022-08-19T10:21:35;97677.14;;;30.35;86.03
35479;BME280;21594;49.794;18.652;2022-08-19T10:24:04;97675.38;;;30.46;85.49
35479;BME280;21594;49.794;18.652;2022-08-19T10:26:36;97670.94;;;30.57;85.02
35479;BME280;21594;49.794;18.652;2022-08-19T10:29:03;97656.95;;;30.62;84.46
35479;BME280;21594;49.794;18.652;2022-08-19T10:31:33;97666.22;;;30.71;84.34
35479;BME280;21594;49.794;18.652;2022-08-19T10:34:00;97668.25;;;30.84;84.03
35479;BME280;21594;49.794;18.652;2022-08-19T10:36:34;97666.98;;;30.94;83.48
35479;BME280;21594;49.794;18.652;2022-08-19T10:38:59;97668.63;;;30.92;82.54
35479;BME280;21594;49.794;18.652;2022-08-19T10:41:29;97671.33;;;30.95;81.53
35479;BME280;21594;49.794;18.652;2022-08-19T10:43:58;97672.97;;;30.96;81.05
35479;BME280;21594;49.794;18.652;2022-08-19T10:46:26;97674.28;;;30.93;80.09
35479;BME280;21594;49.794;18.652;2022-08-19T10:48:54;97675.70;;;30.98;79.60
35479;BME280;21594;49.794;18.652;2022-08-19T10:51:21;97676.64;;;31.09;79.25
35479;BME280;21594;49.794;18.652;2022-08-19T10:54:06;97680.22;;;31.17;79.22
35479;BME280;21594;49.794;18.652;2022-08-19T10:56:32;97680.30;;;31.27;78.42
35479;BME280;21594;49.794;18.652;2022-08-19T10:59:27;97681.48;;;31.36;78.15
35479;BME280;21594;49.794;18.652;2022-08-19T11:02:00;97674.22;;;31.42;76.98
35479;BME280;21594;49.794;18.652;2022-08-19T11:04:24;97672.37;;;31.47;76.52
35479;BME280;21594;49.794;18.652;2022-08-19T11:06:50;97670.52;;;31.53;76.44
35479;BME280;21594;49.794;18.652;2022-08-19T11:09:19;97668.63;;;31.56;75.45
35479;BME280;21594;49.794;18.652;2022-08-19T11:11:46;97662.41;;;31.55;74.51
35479;BME280;21594;49.794;18.652;2022-08-19T11:14:15;97666.52;;;31.61;73.59
35479;BME280;21594;49.794;18.652;2022-08-19T11:16:41;97662.75;;;31.64;73.51
35479;BME280;21594;49.794;18.652;2022-08-19T11:19:09;97667.13;;;31.70;73.22
35479;BME280;21594;49.794;18.652;2022-08-19T11:21:41;97656.58;;;31.69;72.17
35479;BME280;21594;49.794;18.652;2022-08-19T11:24:12;97659.28;;;31.71;71.24
35479;BME280;21594;49.794;18.652;2022-08-19T11:26:39;97658.81;;;31.79;70.75
35479;BME280;21594;49.794;18.652;2022-08-19T11:29:08;97658.61;;;31.91;70.19
35479;BME280;21594;49.794;18.652;2022-08-19T11:31:41;97665.73;;;32.07;69.28
35479;BME280;21594;49.794;18.652;2022-08-19T11:34:10;97661.23;;;32.23;69.00
35479;BME280;21594;49.794;18.652;2022-08-19T11:36:39;97655.82;;;32.30;68.96
35479;BME280;21594;49.794;18.652;2022-08-19T11:39:07;97653.16;;;32.43;69.06
35479;BME280;21594;49.794;18.652;2022-08-19T11:41:34;97655.66;;;32.60;69.28
35479;BME280;21594;49.794;18.652;2022-08-19T11:44:00;97648.12;;;32.74;68.78
35479;BME280;21594;49.794;18.652;2022-08-19T11:46:29;97650.86;;;32.87;67.60
35479;BME280;21594;49.794;18.652;2022-08-19T11:48:56;97641.91;;;32.92;66.37
35479;BME280;21594;49.794;18.652;2022-08-19T11:51:23;97648.95;;;32.95;64.87
35479;BME280;21594;49.794;18.652;2022-08-19T11:53:54;97652.48;;;32.96;62.88
35479;BME280;21594;49.794;18.652;2022-08-19T11:56:21;97652.48;;;32.96;62.88
35479;BME280;21594;49.794;18.652;2022-08-19T11:58:48;97645.16;;;32.91;62.46
35479;BME280;21594;49.794;18.652;2022-08-19T12:01:17;97649.25;;;32.94;62.01
35479;BME280;21594;49.794;18.652;2022-08-19T12:03:45;97640.83;;;32.95;61.87
35479;BME280;21594;49.794;18.652;2022-08-19T12:06:26;97643.83;;;32.94;61.11
35479;BME280;21594;49.794;18.652;2022-08-19T12:08:51;97641.12;;;32.94;60.21
35479;BME280;21594;49.794;18.652;2022-08-19T12:11:18;97638.92;;;32.91;59.69
35479;BME280;21594;49.794;18.652;2022-08-19T12:13:46;97626.19;;;32.91;59.29
35479;BME280;21594;49.794;18.652;2022-08-19T12:16:19;97633.80;;;32.94;59.38
35479;BME280;21594;49.794;18.652;2022-08-19T12:18:47;97626.20;;;32.89;59.04
35479;BME280;21594;49.794;18.652;2022-08-19T12:21:18;97627.55;;;32.91;58.62
35479;BME280;21594;49.794;18.652;2022-08-19T12:23:48;97627.02;;;32.94;58.25
35479;BME280;21594;49.794;18.652;2022-08-19T12:26:14;97633.78;;;32.92;57.93
35479;BME280;21594;49.794;18.652;2022-08-19T12:28:40;97624.56;;;32.83;57.92
35479;BME280;21594;49.794;18.652;2022-08-19T12:31:08;97629.98;;;32.77;58.39
35479;BME280;21594;49.794;18.652;2022-08-19T12:33:37;97621.30;;;32.75;58.81
35479;BME280;21594;49.794;18.652;2022-08-19T12:36:07;97628.91;;;32.89;59.45
35479;BME280;21594;49.794;18.652;2022-08-19T12:38:34;97625.93;;;32.98;59.61
35479;BME280;21594;49.794;18.652;2022-08-19T12:41:00;97625.38;;;33.01;58.94
35479;BME280;21594;49.794;18.652;2022-08-19T12:43:32;97623.77;;;33.05;58.54
35479;BME280;21594;49.794;18.652;2022-08-19T12:45:58;97625.93;;;33.03;57.78
35479;BME280;21594;49.794;18.652;2022-08-19T12:48:26;97620.77;;;33.01;57.19
35479;BME280;21594;49.794;18.652;2022-08-19T12:50:52;97617.25;;;33.03;56.82
35479;BME280;21594;49.794;18.652;2022-08-19T12:53:19;97615.08;;;33.08;56.47
35479;BME280;21594;49.794;18.652;2022-08-19T12:55:45;97617.25;;;33.13;55.51
35479;BME280;21594;49.794;18.652;2022-08-19T12:58:12;97618.09;;;33.24;55.63
35479;BME280;21594;49.794;18.652;2022-08-19T13:00:39;97617.53;;;33.35;55.36
35479;BME280;21594;49.794;18.652;2022-08-19T13:03:07;97618.88;;;33.45;54.85
35479;BME280;21594;49.794;18.652;2022-08-19T13:05:33;97616.16;;;33.52;54.43
35479;BME280;21594;49.794;18.652;2022-08-19T13:08:00;97618.31;;;33.63;54.06
35479;BME280;21594;49.794;18.652;2022-08-19T13:10:30;97613.71;;;33.69;53.81